createdAt,value
2023-02-26T00:00:00.714Z,101610
2023-02-26T00:01:00.873Z,101610
2023-02-26T00:02:00.570Z,101610
2023-02-26T00:03:00.584Z,101610
2023-02-26T00:04:01.257Z,101610
2023-02-26T00:05:00.526Z,101610
2023-02-26T00:06:00.517Z,101610
2023-02-26T00:07:00.522Z,101620
2023-02-26T00:08:00.546Z,101620
2023-02-26T00:09:00.964Z,101610
2023-02-26T00:10:00.551Z,101610
2023-02-26T00:11:00.827Z,101620
2023-02-26T00:12:00.654Z,101620
2023-02-26T00:13:00.646Z,101620
2023-02-26T00:14:00.591Z,101620
2023-02-26T00:15:00.723Z,101620
2023-02-26T00:16:00.655Z,101620
2023-02-26T00:17:03.833Z,101620
2023-02-26T00:18:05.071Z,101620
2023-02-26T00:19:02.095Z,101630
2023-02-26T00:20:00.783Z,101630
2023-02-26T00:21:00.656Z,101630
2023-02-26T00:22:00.711Z,101630
2023-02-26T00:23:00.647Z,101630
2023-02-26T00:24:00.875Z,101630
2023-02-26T00:25:00.542Z,101630
2023-02-26T00:26:00.541Z,101630
2023-02-26T00:27:00.534Z,101620
2023-02-26T00:28:00.670Z,101620
2023-02-26T00:29:00.710Z,101630
2023-02-26T00:30:01.014Z,101630
2023-02-26T00:31:00.674Z,101630
2023-02-26T00:32:00.735Z,101630
2023-02-26T00:33:00.726Z,101640
2023-02-26T00:34:00.675Z,101640
2023-02-26T00:35:00.698Z,101640
2023-02-26T00:36:10.467Z,101640
2023-02-26T00:37:09.521Z,101640
2023-02-26T00:38:02.381Z,101640
2023-02-26T00:39:07.632Z,101650
2023-02-26T00:40:10.454Z,101650
2023-02-26T00:41:00.552Z,101650
2023-02-26T00:42:00.728Z,101650
2023-02-26T00:43:01.588Z,101650
2023-02-26T00:44:00.960Z,101650
2023-02-26T00:45:00.864Z,101660
2023-02-26T00:46:10.515Z,101660
2023-02-26T00:47:08.959Z,101660
2023-02-26T00:48:10.470Z,101660
2023-02-26T00:49:07.841Z,101660
2023-02-26T00:50:08.884Z,101660
2023-02-26T00:51:07.305Z,101660
2023-02-26T00:52:03.931Z,101660
2023-02-26T00:53:07.961Z,101660
2023-02-26T00:54:04.103Z,101660
2023-02-26T00:55:00.539Z,101660
2023-02-26T00:56:00.595Z,101660
2023-02-26T00:57:00.533Z,101660
2023-02-26T00:58:00.569Z,101660
2023-02-26T00:59:00.545Z,101660
2023-02-26T01:00:00.580Z,101660
2023-02-26T01:01:00.519Z,101670
2023-02-26T01:02:00.587Z,101670
2023-02-26T01:03:00.675Z,101670
2023-02-26T01:04:00.774Z,101670
2023-02-26T01:05:00.625Z,101680
2023-02-26T01:06:00.656Z,101680
2023-02-26T01:07:00.601Z,101680
2023-02-26T01:08:01.536Z,101680
2023-02-26T01:09:01.524Z,101680
2023-02-26T01:10:00.638Z,101680
2023-02-26T01:11:00.628Z,101680
2023-02-26T01:12:02.883Z,101680
2023-02-26T01:13:00.633Z,101680
2023-02-26T01:14:00.858Z,101680
2023-02-26T01:15:00.709Z,101680
2023-02-26T01:16:04.023Z,101680
2023-02-26T01:17:05.717Z,101680
2023-02-26T01:18:10.807Z,101680
2023-02-26T01:19:10.470Z,101680
2023-02-26T01:20:03.289Z,101680
2023-02-26T01:21:02.838Z,101670
2023-02-26T01:22:08.761Z,101670
2023-02-26T01:23:02.744Z,101680
2023-02-26T01:24:03.579Z,101680
2023-02-26T01:25:03.764Z,101670
2023-02-26T01:26:05.565Z,101670
2023-02-26T01:27:00.565Z,101680
2023-02-26T01:28:00.587Z,101680
2023-02-26T01:29:00.648Z,101680
2023-02-26T01:30:00.805Z,101680
2023-02-26T01:31:03.276Z,101680
2023-02-26T01:32:10.673Z,101680
2023-02-26T01:33:07.272Z,101670
2023-02-26T01:34:05.417Z,101670
2023-02-26T01:35:10.449Z,101670
2023-02-26T01:36:06.538Z,101670
2023-02-26T01:37:10.484Z,101680
2023-02-26T01:38:03.218Z,101680
2023-02-26T01:39:05.998Z,101680
2023-02-26T01:40:00.498Z,101680
2023-02-26T01:41:08.714Z,101690
2023-02-26T01:42:10.472Z,101690
2023-02-26T01:43:04.472Z,101690
2023-02-26T01:44:03.843Z,101690
2023-02-26T01:45:10.486Z,101700
2023-02-26T01:46:05.103Z,101700
2023-02-26T01:47:10.473Z,101700
2023-02-26T01:48:04.689Z,101700
2023-02-26T01:49:01.439Z,101700
2023-02-26T01:50:10.443Z,101700
2023-02-26T01:51:00.600Z,101700
2023-02-26T01:52:02.345Z,101700
2023-02-26T01:53:03.774Z,101700
2023-02-26T01:54:00.538Z,101700
2023-02-26T01:55:00.657Z,101700
2023-02-26T01:56:02.939Z,101700
2023-02-26T01:57:01.510Z,101700
2023-02-26T01:58:01.239Z,101700
2023-02-26T01:59:01.648Z,101710
2023-02-26T02:00:00.641Z,101710
2023-02-26T02:01:00.878Z,101710
2023-02-26T02:02:02.795Z,101710
2023-02-26T02:03:00.876Z,101710
2023-02-26T02:04:01.554Z,101710
2023-02-26T02:05:10.453Z,101720
2023-02-26T02:06:03.767Z,101720
2023-02-26T02:07:01.117Z,101720
2023-02-26T02:08:00.594Z,101720
2023-02-26T02:09:01.926Z,101720
2023-02-26T02:10:00.571Z,101720
2023-02-26T02:11:02.210Z,101720
2023-02-26T02:12:10.472Z,101720
2023-02-26T02:13:00.523Z,101730
2023-02-26T02:14:10.464Z,101730
2023-02-26T02:15:00.576Z,101730
2023-02-26T02:16:10.553Z,101730
2023-02-26T02:17:09.362Z,101730
2023-02-26T02:18:01.520Z,101730
2023-02-26T02:19:00.512Z,101730
2023-02-26T02:20:10.484Z,101730
2023-02-26T02:21:01.536Z,101730
2023-02-26T02:22:10.476Z,101730
2023-02-26T02:23:09.477Z,101730
2023-02-26T02:25:10.482Z,101740
2023-02-26T02:26:10.449Z,101740
2023-02-26T02:27:00.532Z,101740
2023-02-26T02:28:10.442Z,101740
2023-02-26T02:29:03.776Z,101740
2023-02-26T02:30:06.049Z,101740
2023-02-26T02:31:03.891Z,101750
2023-02-26T02:32:05.679Z,101750
2023-02-26T02:33:03.485Z,101750
2023-02-26T02:34:09.214Z,101750
2023-02-26T02:35:10.436Z,101750
2023-02-26T02:36:04.859Z,101750
2023-02-26T02:37:03.970Z,101750
2023-02-26T02:38:10.648Z,101750
2023-02-26T02:39:08.417Z,101750
2023-02-26T02:40:03.335Z,101750
2023-02-26T02:41:10.229Z,101750
2023-02-26T02:42:00.542Z,101750
2023-02-26T02:43:01.522Z,101760
2023-02-26T02:44:02.381Z,101760
2023-02-26T02:45:04.305Z,101760
2023-02-26T02:46:04.005Z,101760
2023-02-26T02:47:02.062Z,101760
2023-02-26T02:48:02.880Z,101760
2023-02-26T02:49:03.362Z,101760
2023-02-26T02:50:01.574Z,101760
2023-02-26T02:51:02.409Z,101760
2023-02-26T02:52:09.358Z,101760
2023-02-26T02:53:03.688Z,101770
2023-02-26T02:54:07.404Z,101770
2023-02-26T02:55:04.353Z,101770
2023-02-26T02:56:07.990Z,101770
2023-02-26T02:57:05.802Z,101770
2023-02-26T02:58:05.916Z,101770
2023-02-26T02:59:05.076Z,101780
2023-02-26T03:00:04.314Z,101780
2023-02-26T03:01:02.192Z,101780
2023-02-26T03:02:06.519Z,101780
2023-02-26T03:03:10.447Z,101780
2023-02-26T03:04:05.262Z,101780
2023-02-26T03:05:00.626Z,101790
2023-02-26T03:06:00.616Z,101790
2023-02-26T03:07:00.530Z,101780
2023-02-26T03:08:03.978Z,101780
2023-02-26T03:09:01.383Z,101780
2023-02-26T03:10:00.535Z,101780
2023-02-26T03:11:00.555Z,101780
2023-02-26T03:12:01.037Z,101780
2023-02-26T03:13:00.644Z,101780
2023-02-26T03:14:01.166Z,101780
2023-02-26T03:15:00.939Z,101790
2023-02-26T03:16:08.616Z,101790
2023-02-26T03:17:07.599Z,101790
2023-02-26T03:18:05.893Z,101790
2023-02-26T03:19:10.469Z,101790
2023-02-26T03:20:01.506Z,101790
2023-02-26T03:21:00.501Z,101790
2023-02-26T03:22:03.754Z,101790
2023-02-26T03:23:00.490Z,101800
2023-02-26T03:24:10.434Z,101800
2023-02-26T03:25:10.470Z,101800
2023-02-26T03:26:08.380Z,101800
2023-02-26T03:27:06.643Z,101810
2023-02-26T03:28:00.510Z,101810
2023-02-26T03:29:00.534Z,101810
2023-02-26T03:30:04.963Z,101810
2023-02-26T03:31:06.426Z,101810
2023-02-26T03:32:04.312Z,101810
2023-02-26T03:33:05.162Z,101810
2023-02-26T03:34:07.835Z,101810
2023-02-26T03:35:03.933Z,101820
2023-02-26T03:36:07.385Z,101820
2023-02-26T03:37:03.739Z,101820
2023-02-26T03:38:02.916Z,101820
2023-02-26T03:39:01.517Z,101820
2023-02-26T03:40:02.836Z,101820
2023-02-26T03:41:03.580Z,101830
2023-02-26T03:42:00.489Z,101830
2023-02-26T03:43:04.453Z,101830
2023-02-26T03:44:04.743Z,101830
2023-02-26T03:45:00.492Z,101830
2023-02-26T03:46:03.918Z,101830
2023-02-26T03:47:04.848Z,101840
2023-02-26T03:48:01.844Z,101840
2023-02-26T03:49:04.341Z,101830
2023-02-26T03:50:00.512Z,101830
2023-02-26T03:51:02.854Z,101840
2023-02-26T03:52:01.733Z,101840
2023-02-26T03:53:01.660Z,101840
2023-02-26T03:54:04.882Z,101840
2023-02-26T03:55:05.116Z,101840
2023-02-26T03:56:01.548Z,101840
2023-02-26T03:57:00.547Z,101840
2023-02-26T03:58:00.845Z,101840
2023-02-26T03:59:00.631Z,101830
2023-02-26T04:00:00.548Z,101830
2023-02-26T04:01:05.045Z,101840
2023-02-26T04:02:03.778Z,101840
2023-02-26T04:03:04.042Z,101840
2023-02-26T04:04:10.476Z,101840
2023-02-26T04:05:10.441Z,101840
2023-02-26T04:06:01.246Z,101840
2023-02-26T04:07:01.238Z,101840
2023-02-26T04:08:01.235Z,101840
2023-02-26T04:09:00.924Z,101840
2023-02-26T04:10:00.513Z,101840
2023-02-26T04:11:05.963Z,101850
2023-02-26T04:12:00.524Z,101850
2023-02-26T04:13:01.579Z,101850
2023-02-26T04:14:00.564Z,101850
2023-02-26T04:15:00.530Z,101850
2023-02-26T04:16:00.524Z,101850
2023-02-26T04:17:00.756Z,101850
2023-02-26T04:18:00.517Z,101850
2023-02-26T04:19:00.505Z,101860
2023-02-26T04:20:00.533Z,101860
2023-02-26T04:21:00.655Z,101860
2023-02-26T04:22:00.537Z,101860
2023-02-26T04:23:00.512Z,101860
2023-02-26T04:24:00.534Z,101860
2023-02-26T04:25:00.613Z,101860
2023-02-26T04:26:00.535Z,101860
2023-02-26T04:27:00.504Z,101860
2023-02-26T04:28:00.564Z,101860
2023-02-26T04:29:00.538Z,101870
2023-02-26T04:30:00.544Z,101870
2023-02-26T04:31:00.663Z,101870
2023-02-26T04:32:00.679Z,101870
2023-02-26T04:33:00.706Z,101870
2023-02-26T04:34:00.543Z,101870
2023-02-26T04:35:00.504Z,101870
2023-02-26T04:36:00.820Z,101870
2023-02-26T04:37:00.604Z,101870
2023-02-26T04:38:00.536Z,101870
2023-02-26T04:39:00.509Z,101880
2023-02-26T04:40:00.577Z,101880
2023-02-26T04:41:00.567Z,101880
2023-02-26T04:42:00.541Z,101880
2023-02-26T04:43:00.533Z,101880
2023-02-26T04:44:00.512Z,101880
2023-02-26T04:45:00.855Z,101880
2023-02-26T04:46:00.548Z,101880
2023-02-26T04:47:00.501Z,101880
2023-02-26T04:48:00.568Z,101880
2023-02-26T04:49:00.531Z,101890
2023-02-26T04:50:00.564Z,101890
2023-02-26T04:51:00.532Z,101900
2023-02-26T04:52:00.599Z,101900
2023-02-26T04:53:00.525Z,101900
2023-02-26T04:54:00.528Z,101900
2023-02-26T04:55:00.599Z,101900
2023-02-26T04:56:00.513Z,101900
2023-02-26T04:57:00.548Z,101900
2023-02-26T04:58:00.581Z,101900
2023-02-26T04:59:00.505Z,101900
2023-02-26T05:00:00.641Z,101900
2023-02-26T05:01:00.522Z,101910
2023-02-26T05:02:00.623Z,101910
2023-02-26T05:03:00.531Z,101910
2023-02-26T05:04:00.533Z,101910
2023-02-26T05:05:00.828Z,101910
2023-02-26T05:06:00.537Z,101910
2023-02-26T05:07:00.541Z,101910
2023-02-26T05:08:01.033Z,101910
2023-02-26T05:09:00.550Z,101920
2023-02-26T05:10:00.588Z,101920
2023-02-26T05:11:00.549Z,101920
2023-02-26T05:12:00.603Z,101920
2023-02-26T05:13:00.565Z,101920
2023-02-26T05:14:00.518Z,101920
2023-02-26T05:15:00.560Z,101920
2023-02-26T05:16:00.727Z,101920
2023-02-26T05:17:00.532Z,101920
2023-02-26T05:18:00.538Z,101920
2023-02-26T05:19:00.523Z,101930
2023-02-26T05:20:00.537Z,101930
2023-02-26T05:21:00.587Z,101930
2023-02-26T05:22:00.520Z,101930
2023-02-26T05:23:00.731Z,101930
2023-02-26T05:24:00.534Z,101930
2023-02-26T05:25:00.540Z,101930
2023-02-26T05:26:00.650Z,101930
2023-02-26T05:27:00.544Z,101940
2023-02-26T05:28:00.616Z,101940
2023-02-26T05:29:00.653Z,101940
2023-02-26T05:30:00.545Z,101940
2023-02-26T05:31:00.615Z,101940
2023-02-26T05:32:01.115Z,101940
2023-02-26T05:33:00.521Z,101940
2023-02-26T05:34:00.514Z,101940
2023-02-26T05:35:00.628Z,101940
2023-02-26T05:36:00.530Z,101940
2023-02-26T05:37:00.556Z,101940
2023-02-26T05:38:00.537Z,101940
2023-02-26T05:39:00.609Z,101930
2023-02-26T05:40:00.560Z,101930
2023-02-26T05:41:00.576Z,101940
2023-02-26T05:42:00.530Z,101940
2023-02-26T05:43:00.564Z,101940
2023-02-26T05:44:00.540Z,101940
2023-02-26T05:45:00.546Z,101940
2023-02-26T05:46:00.764Z,101940
2023-02-26T05:47:01.338Z,101940
2023-02-26T05:48:00.654Z,101940
2023-02-26T05:49:00.545Z,101950
2023-02-26T05:50:00.665Z,101950
2023-02-26T05:51:00.580Z,101950
2023-02-26T05:52:00.617Z,101950
2023-02-26T05:53:00.541Z,101960
2023-02-26T05:54:00.566Z,101960
2023-02-26T05:55:00.546Z,101950
2023-02-26T05:56:00.595Z,101950
2023-02-26T05:57:00.828Z,101960
2023-02-26T05:58:00.517Z,101960
2023-02-26T05:59:00.698Z,101960
2023-02-26T06:00:00.726Z,101960
2023-02-26T06:01:00.522Z,101960
2023-02-26T06:02:00.604Z,101960
2023-02-26T06:03:00.746Z,101970
2023-02-26T06:04:00.543Z,101970
2023-02-26T06:05:00.575Z,101970
2023-02-26T06:06:00.567Z,101970
2023-02-26T06:07:00.749Z,101970
2023-02-26T06:08:00.871Z,101970
2023-02-26T06:09:00.583Z,101970
2023-02-26T06:10:00.542Z,101970
2023-02-26T06:11:00.563Z,101980
2023-02-26T06:12:00.530Z,101980
2023-02-26T06:13:00.529Z,101980
2023-02-26T06:14:00.580Z,101980
2023-02-26T06:15:00.547Z,101980
2023-02-26T06:16:00.765Z,101980
2023-02-26T06:17:01.368Z,101990
2023-02-26T06:18:00.541Z,101990
2023-02-26T06:19:01.083Z,101990
2023-02-26T06:20:00.570Z,101990
2023-02-26T06:21:00.733Z,101990
2023-02-26T06:22:00.609Z,101990
2023-02-26T06:23:00.550Z,101990
2023-02-26T06:24:00.536Z,101990
2023-02-26T06:25:00.657Z,101990
2023-02-26T06:26:00.560Z,101990
2023-02-26T06:27:00.588Z,101990
2023-02-26T06:28:00.557Z,101990
2023-02-26T06:29:00.566Z,102010
2023-02-26T06:30:00.559Z,102010
2023-02-26T06:31:00.877Z,102010
2023-02-26T06:32:00.667Z,102010
2023-02-26T06:33:00.678Z,102010
2023-02-26T06:34:00.588Z,102010
2023-02-26T06:35:00.552Z,102010
2023-02-26T06:36:00.558Z,102010
2023-02-26T06:37:00.546Z,102010
2023-02-26T06:38:00.736Z,102010
2023-02-26T06:39:00.528Z,102020
2023-02-26T06:40:00.636Z,102020
2023-02-26T06:41:00.575Z,102020
2023-02-26T06:42:00.596Z,102020
2023-02-26T06:43:00.530Z,102030
2023-02-26T06:44:00.542Z,102030
2023-02-26T06:45:00.783Z,102030
2023-02-26T06:46:00.733Z,102030
2023-02-26T06:47:00.789Z,102040
2023-02-26T06:48:00.642Z,102040
2023-02-26T06:49:00.557Z,102040
2023-02-26T06:50:00.542Z,102040
2023-02-26T06:51:00.602Z,102050
2023-02-26T06:52:00.691Z,102050
2023-02-26T06:53:00.568Z,102050
2023-02-26T06:54:00.604Z,102050
2023-02-26T06:55:00.777Z,102050
2023-02-26T06:56:00.569Z,102050
2023-02-26T06:57:00.539Z,102060
2023-02-26T06:58:00.568Z,102060
2023-02-26T06:59:00.715Z,102060
2023-02-26T07:00:00.753Z,102060
2023-02-26T07:01:01.947Z,102070
2023-02-26T07:02:00.636Z,102070
2023-02-26T07:03:00.561Z,102060
2023-02-26T07:04:00.605Z,102060
2023-02-26T07:05:00.546Z,102070
2023-02-26T07:06:18.741Z,102070
2023-02-26T07:07:00.603Z,102070
2023-02-26T07:08:00.542Z,102070
2023-02-26T07:09:00.660Z,102080
2023-02-26T07:10:00.588Z,102080
2023-02-26T07:11:00.631Z,102080
2023-02-26T07:12:00.570Z,102080
2023-02-26T07:13:00.849Z,102080
2023-02-26T07:14:00.536Z,102080
2023-02-26T07:15:00.652Z,102090
2023-02-26T07:16:00.562Z,102090
2023-02-26T07:17:01.161Z,102090
2023-02-26T07:18:00.617Z,102090
2023-02-26T07:19:00.553Z,102100
2023-02-26T07:20:00.565Z,102100
2023-02-26T07:21:00.653Z,102100
2023-02-26T07:22:00.760Z,102100
2023-02-26T07:23:00.676Z,102110
2023-02-26T07:24:00.538Z,102110
2023-02-26T07:25:00.565Z,102120
2023-02-26T07:26:00.607Z,102120
2023-02-26T07:27:00.535Z,102120
2023-02-26T07:28:00.571Z,102120
2023-02-26T07:29:00.539Z,102120
2023-02-26T07:30:00.960Z,102120
2023-02-26T07:31:00.689Z,102130
2023-02-26T07:32:00.799Z,102130
2023-02-26T07:33:00.558Z,102130
2023-02-26T07:34:00.536Z,102130
2023-02-26T07:35:00.587Z,102130
2023-02-26T07:36:00.816Z,102130
2023-02-26T07:37:00.587Z,102130
2023-02-26T07:38:00.950Z,102130
2023-02-26T07:39:00.557Z,102140
2023-02-26T07:40:00.560Z,102140
2023-02-26T07:41:00.556Z,102130
2023-02-26T07:42:00.554Z,102130
2023-02-26T07:43:00.523Z,102140
2023-02-26T07:44:00.583Z,102140
2023-02-26T07:45:00.653Z,102140
2023-02-26T07:46:00.560Z,102140
2023-02-26T07:47:00.685Z,102140
2023-02-26T07:48:00.685Z,102140
2023-02-26T07:49:00.876Z,102140
2023-02-26T07:50:00.549Z,102140
2023-02-26T07:51:00.551Z,102140
2023-02-26T07:52:00.695Z,102140
2023-02-26T07:53:00.581Z,102150
2023-02-26T07:54:00.522Z,102150
2023-02-26T07:55:00.577Z,102150
2023-02-26T07:56:00.554Z,102150
2023-02-26T07:57:00.681Z,102160
2023-02-26T07:58:00.531Z,102160
2023-02-26T07:59:00.551Z,102150
2023-02-26T08:00:00.713Z,102150
2023-02-26T08:01:00.613Z,102150
2023-02-26T08:02:00.672Z,102150
2023-02-26T08:03:00.631Z,102160
2023-02-26T08:04:00.902Z,102160
2023-02-26T08:05:00.580Z,102160
2023-02-26T08:06:00.574Z,102160
2023-02-26T08:07:00.653Z,102160
2023-02-26T08:08:00.734Z,102160
2023-02-26T08:09:01.077Z,102160
2023-02-26T08:10:00.543Z,102160
2023-02-26T08:11:00.891Z,102160
2023-02-26T08:12:00.565Z,102160
2023-02-26T08:13:00.653Z,102160
2023-02-26T08:14:00.560Z,102160
2023-02-26T08:15:00.543Z,102160
2023-02-26T08:16:00.579Z,102160
2023-02-26T08:17:00.528Z,102160
2023-02-26T08:18:00.529Z,102160
2023-02-26T08:19:00.560Z,102160
2023-02-26T08:20:00.532Z,102160
2023-02-26T08:21:00.562Z,102160
2023-02-26T08:22:00.520Z,102160
2023-02-26T08:23:00.731Z,102170
2023-02-26T08:24:00.554Z,102170
2023-02-26T08:25:00.521Z,102170
2023-02-26T08:26:01.174Z,102170
2023-02-26T08:27:00.539Z,102170
2023-02-26T08:28:00.526Z,102170
2023-02-26T08:29:00.547Z,102180
2023-02-26T08:30:00.666Z,102180
2023-02-26T08:31:00.696Z,102180
2023-02-26T08:32:00.693Z,102180
2023-02-26T08:33:00.590Z,102180
2023-02-26T08:34:00.781Z,102180
2023-02-26T08:35:00.587Z,102190
2023-02-26T08:36:00.534Z,102190
2023-02-26T08:37:00.583Z,102190
2023-02-26T08:38:00.540Z,102190
2023-02-26T08:39:00.625Z,102190
2023-02-26T08:40:00.532Z,102190
2023-02-26T08:41:00.553Z,102200
2023-02-26T08:42:00.529Z,102200
2023-02-26T08:43:00.546Z,102200
2023-02-26T08:44:01.063Z,102200
2023-02-26T08:45:00.727Z,102200
2023-02-26T08:46:00.582Z,102200
2023-02-26T08:47:00.630Z,102190
2023-02-26T08:48:00.527Z,102190
2023-02-26T08:49:00.679Z,102190
2023-02-26T08:50:00.525Z,102190
2023-02-26T08:51:00.561Z,102210
2023-02-26T08:52:00.527Z,102210
2023-02-26T08:53:00.561Z,102210
2023-02-26T08:54:00.534Z,102210
2023-02-26T08:55:00.526Z,102220
2023-02-26T08:56:00.543Z,102220
2023-02-26T08:57:00.535Z,102220
2023-02-26T08:58:00.535Z,102220
2023-02-26T09:01:00.567Z,102230
2023-02-26T09:02:00.640Z,102230
2023-02-26T09:03:00.781Z,102230
2023-02-26T09:04:00.665Z,102230
2023-02-26T09:05:00.531Z,102220
2023-02-26T09:06:00.564Z,102220
2023-02-26T09:07:00.539Z,102240
2023-02-26T09:08:00.776Z,102240
2023-02-26T09:09:00.530Z,102230
2023-02-26T09:10:00.573Z,102230
2023-02-26T09:11:01.121Z,102230
2023-02-26T09:12:00.591Z,102230
2023-02-26T09:13:00.560Z,102240
2023-02-26T09:14:00.530Z,102240
2023-02-26T09:15:00.519Z,102240
2023-02-26T09:16:00.620Z,102240
2023-02-26T09:17:00.545Z,102250
2023-02-26T09:18:00.516Z,102250
2023-02-26T09:19:00.580Z,102240
2023-02-26T09:20:00.983Z,102240
2023-02-26T09:21:00.555Z,102250
2023-02-26T09:22:00.522Z,102250
2023-02-26T09:23:00.516Z,102260
2023-02-26T09:24:00.688Z,102260
2023-02-26T09:25:00.755Z,102260
2023-02-26T09:26:00.549Z,102260
2023-02-26T09:27:00.537Z,102270
2023-02-26T09:28:00.647Z,102270
2023-02-26T09:29:00.573Z,102260
2023-02-26T09:30:00.900Z,102260
2023-02-26T09:31:00.601Z,102270
2023-02-26T09:32:00.697Z,102270
2023-02-26T09:33:00.573Z,102280
2023-02-26T09:34:00.517Z,102280
2023-02-26T09:35:00.540Z,102280
2023-02-26T09:36:00.587Z,102280
2023-02-26T09:37:01.565Z,102280
2023-02-26T09:38:00.556Z,102280
2023-02-26T09:39:00.531Z,102290
2023-02-26T09:40:00.570Z,102290
2023-02-26T09:41:10.452Z,102280
2023-02-26T09:42:07.892Z,102280
2023-02-26T09:43:06.982Z,102290
2023-02-26T09:44:08.408Z,102290
2023-02-26T09:45:01.715Z,102290
2023-02-26T09:46:03.956Z,102290
2023-02-26T09:47:05.423Z,102290
2023-02-26T09:48:03.187Z,102290
2023-02-26T09:49:06.248Z,102300
2023-02-26T09:50:03.513Z,102300
2023-02-26T09:51:00.552Z,102290
2023-02-26T09:52:03.525Z,102290
2023-02-26T09:53:01.541Z,102290
2023-02-26T09:54:10.483Z,102290
2023-02-26T09:55:04.611Z,102290
2023-02-26T09:56:03.972Z,102290
2023-02-26T09:57:01.538Z,102290
2023-02-26T09:58:02.768Z,102290
2023-02-26T09:59:00.530Z,102300
2023-02-26T10:00:01.918Z,102300
2023-02-26T10:01:10.458Z,102310
2023-02-26T10:02:06.660Z,102310
2023-02-26T10:03:08.534Z,102310
2023-02-26T10:04:09.438Z,102310
2023-02-26T10:05:08.088Z,102310
2023-02-26T10:06:10.498Z,102310
2023-02-26T10:07:10.483Z,102310
2023-02-26T10:08:04.787Z,102310
2023-02-26T10:09:10.460Z,102320
2023-02-26T10:10:04.389Z,102320
2023-02-26T10:11:01.561Z,102320
2023-02-26T10:12:04.608Z,102320
2023-02-26T10:13:01.007Z,102320
2023-02-26T10:14:03.661Z,102320
2023-02-26T10:15:00.510Z,102320
2023-02-26T10:16:04.501Z,102320
2023-02-26T10:17:04.754Z,102330
2023-02-26T10:21:06.172Z,102330
2023-02-26T10:24:04.118Z,102320
2023-02-26T10:29:09.558Z,102330
2023-02-26T10:30:04.247Z,102320
2023-02-26T10:31:10.544Z,102320
2023-02-26T10:32:00.633Z,102320
2023-02-26T10:33:05.758Z,102320
2023-02-26T10:34:10.490Z,102330
2023-02-26T10:35:00.511Z,102330
2023-02-26T10:36:09.467Z,102340
2023-02-26T10:37:03.517Z,102340
2023-02-26T10:38:07.650Z,102330
2023-02-26T10:39:10.482Z,102330
2023-02-26T10:40:08.074Z,102330
2023-02-26T10:41:04.299Z,102330
2023-02-26T10:42:04.876Z,102330
2023-02-26T10:43:10.455Z,102330
2023-02-26T10:44:05.894Z,102330
2023-02-26T10:45:10.065Z,102330
2023-02-26T10:46:08.569Z,102350
2023-02-26T10:47:10.453Z,102350
2023-02-26T10:48:07.264Z,102320
2023-02-26T10:49:10.500Z,102320
2023-02-26T10:50:03.416Z,102330
2023-02-26T10:51:04.339Z,102330
2023-02-26T10:52:09.456Z,102340
2023-02-26T10:53:01.410Z,102340
2023-02-26T10:54:05.253Z,102330
2023-02-26T10:55:10.466Z,102330
2023-02-26T10:56:10.395Z,102340
2023-02-26T10:57:00.722Z,102340
2023-02-26T10:58:05.234Z,102330
2023-02-26T10:59:00.530Z,102330
2023-02-26T11:00:01.315Z,102330
2023-02-26T11:01:01.105Z,102330
2023-02-26T11:02:00.773Z,102320
2023-02-26T11:03:01.606Z,102320
2023-02-26T11:04:02.854Z,102330
2023-02-26T11:05:07.670Z,102330
2023-02-26T11:06:01.385Z,102330
2023-02-26T11:07:01.562Z,102330
2023-02-26T11:08:03.277Z,102340
2023-02-26T11:09:01.344Z,102340
2023-02-26T11:10:01.487Z,102340
2023-02-26T11:11:01.974Z,102340
2023-02-26T11:12:03.748Z,102330
2023-02-26T11:13:00.563Z,102330
2023-02-26T11:14:00.794Z,102330
2023-02-26T11:15:00.880Z,102330
2023-02-26T11:16:02.789Z,102340
2023-02-26T11:17:02.724Z,102340
2023-02-26T11:18:01.027Z,102330
2023-02-26T11:19:00.819Z,102330
2023-02-26T11:20:03.271Z,102340
2023-02-26T11:21:03.591Z,102340
2023-02-26T11:22:01.264Z,102340
2023-02-26T11:23:02.278Z,102340
2023-02-26T11:24:04.063Z,102340
2023-02-26T11:25:01.686Z,102340
2023-02-26T11:26:10.462Z,102340
2023-02-26T11:27:02.175Z,102340
2023-02-26T11:28:02.293Z,102330
2023-02-26T11:29:00.944Z,102330
2023-02-26T11:30:05.935Z,102340
2023-02-26T11:31:04.092Z,102340
2023-02-26T11:32:00.629Z,102330
2023-02-26T11:33:05.481Z,102330
2023-02-26T11:34:02.325Z,102340
2023-02-26T11:35:00.570Z,102340
2023-02-26T11:36:01.921Z,102340
2023-02-26T11:37:00.966Z,102340
2023-02-26T11:38:01.584Z,102340
2023-02-26T11:39:03.870Z,102340
2023-02-26T11:40:05.628Z,102340
2023-02-26T11:41:01.015Z,102340
2023-02-26T11:42:01.267Z,102350
2023-02-26T11:43:03.956Z,102350
2023-02-26T11:44:03.804Z,102340
2023-02-26T11:45:00.597Z,102340
2023-02-26T11:46:01.603Z,102330
2023-02-26T11:47:01.959Z,102330
2023-02-26T11:48:05.372Z,102330
2023-02-26T11:49:00.806Z,102330
2023-02-26T11:50:02.696Z,102330
2023-02-26T11:51:02.865Z,102330
2023-02-26T11:52:07.963Z,102320
2023-02-26T11:53:04.591Z,102320
2023-02-26T11:54:00.533Z,102330
2023-02-26T11:55:02.291Z,102330
2023-02-26T11:56:02.324Z,102330
2023-02-26T11:57:01.986Z,102330
2023-02-26T11:58:00.553Z,102330
2023-02-26T11:59:05.639Z,102330
2023-02-26T12:00:00.630Z,102330
2023-02-26T12:01:01.108Z,102330
2023-02-26T12:02:02.038Z,102330
2023-02-26T12:03:02.537Z,102330
2023-02-26T12:04:01.520Z,102330
2023-02-26T12:05:02.375Z,102330
2023-02-26T12:06:00.892Z,102330
2023-02-26T12:07:00.594Z,102330
2023-02-26T12:08:02.413Z,102330
2023-02-26T12:09:00.711Z,102330
2023-02-26T12:10:00.625Z,102330
2023-02-26T12:11:13.181Z,102330
2023-02-26T12:12:03.752Z,102330
2023-02-26T12:13:01.552Z,102330
2023-02-26T12:14:10.481Z,102320
2023-02-26T12:15:06.643Z,102320
2023-02-26T12:16:10.543Z,102320
2023-02-26T12:17:00.504Z,102320
2023-02-26T12:18:10.480Z,102320
2023-02-26T12:19:05.028Z,102320
2023-02-26T12:20:10.482Z,102320
2023-02-26T12:21:00.542Z,102320
2023-02-26T12:22:01.507Z,102310
2023-02-26T12:23:00.535Z,102310
2023-02-26T12:24:10.482Z,102310
2023-02-26T12:25:00.512Z,102310
2023-02-26T12:26:03.754Z,102320
2023-02-26T12:27:00.532Z,102320
2023-02-26T12:28:10.456Z,102310
2023-02-26T12:29:10.481Z,102310
2023-02-26T12:30:10.484Z,102310
2023-02-26T12:31:01.638Z,102310
2023-02-26T12:32:00.650Z,102310
2023-02-26T12:33:10.492Z,102310
2023-02-26T12:34:10.485Z,102310
2023-02-26T12:35:09.501Z,102310
2023-02-26T12:36:10.465Z,102320
2023-02-26T12:37:10.463Z,102320
2023-02-26T12:38:07.135Z,102310
2023-02-26T12:39:03.756Z,102310
2023-02-26T12:40:10.597Z,102320